Hillsdale, Indiana
Current Conditions -  °F | °C
As of 8:15 AM on Tuesday 21 Oct 2014 (Local Time) from KPRG Reporting Station
Haze Haze  
Wind Chill: 47°   Ceiling: 5000
Heat Index: 47°   Visibility: 3mi
Dew Point: 46°   Wind: 0mph
Humidity: 99%   Direction: NA
Pressure: 30.08"   Gusts: NA
Location:  39.79°N, 87.39°W
Report Text: KPRG 211215Z AUTO 00000KT 3SM BR OVC050 08/08 A3008 RMK AO2 T00810080
Loading
Personal Weather Stations






























Interactive Weather Map
Tropical Storm Tracking
New forecast layout! Learn more

10-Day Weather Forecast

Advertisements
Track Severe Weather on mobile